Time;durP1;ratioP1;P1;durP2;ratioP2;P2;SDS_P1;SDS_P2;PMS_P1;PMS_P2;Temp;Humidity;BMP_temperature;BMP_pressure;BME280_temperature;BME280_humidity;BME280_pressure;Samples;Min_cycle;Max_cycle;Signal;HPM_P1;HPM_P2
2021/06/22 00:02:17;;;;;;;3.70;1.90;;;18.40;94.00;;;;;;5055971;28;20493;-79
2021/06/22 00:04:45;;;;;;;2.87;1.70;;;18.40;93.40;;;;;;5049940;28;20493;-80
2021/06/22 00:07:14;;;;;;;2.43;1.87;;;18.40;93.60;;;;;;5039295;28;20482;-78
2021/06/22 00:09:41;;;;;;;2.03;1.87;;;18.30;93.80;;;;;;5041093;28;20475;-79
2021/06/22 00:12:09;;;;;;;3.87;2.33;;;18.40;94.10;;;;;;5060240;23;20530;-77
2021/06/22 00:14:36;;;;;;;5.53;1.87;;;18.30;94.20;;;;;;5033470;28;21007;-77
2021/06/22 00:17:04;;;;;;;3.70;2.10;;;18.30;94.60;;;;;;5034209;28;20506;-77
2021/06/22 00:19:31;;;;;;;3.70;1.73;;;18.30;94.70;;;;;;5034016;28;20493;-76
2021/06/22 00:21:58;;;;;;;1.70;1.57;;;18.30;94.70;;;;;;5034242;28;21067;-76
2021/06/22 00:24:25;;;;;;;1.90;1.80;;;18.30;94.30;;;;;;5034049;28;20484;-76
2021/06/22 00:26:52;;;;;;;2.17;1.77;;;18.40;94.50;;;;;;5035151;28;20555;-75
2021/06/22 00:29:21;;;;;;;2.27;1.87;;;18.40;94.70;;;;;;5041738;28;20602;-76
2021/06/22 00:31:48;;;;;;;1.70;1.60;;;18.40;94.00;;;;;;5034406;28;20470;-77
2021/06/22 00:34:16;;;;;;;5.03;1.80;;;18.40;93.50;;;;;;5033687;28;20491;-77
2021/06/22 00:36:43;;;;;;;2.10;2.00;;;18.40;93.50;;;;;;5033974;28;20531;-76
2021/06/22 00:39:10;;;;;;;2.50;2.30;;;18.40;93.30;;;;;;5033587;28;20584;-77
2021/06/22 00:41:37;;;;;;;2.23;2.13;;;18.30;93.90;;;;;;5034061;28;20564;-79
2021/06/22 00:44:05;;;;;;;2.23;1.93;;;18.20;94.70;;;;;;5034076;28;20487;-77
2021/06/22 00:46:32;;;;;;;2.40;2.20;;;18.20;94.70;;;;;;5035141;28;20567;-78
2021/06/22 00:48:58;;;;;;;2.23;2.10;;;18.10;95.60;;;;;;5035051;28;20530;-77
2021/06/22 00:51:27;;;;;;;3.17;2.37;;;18.10;96.10;;;;;;5040502;28;20475;-78
2021/06/22 00:53:55;;;;;;;2.57;2.27;;;18.30;96.30;;;;;;5042742;28;20473;-78
2021/06/22 00:56:22;;;;;;;2.30;2.20;;;18.30;95.60;;;;;;5034761;28;20465;-77
2021/06/22 00:58:50;;;;;;;2.40;2.20;;;18.30;95.00;;;;;;5034416;28;20491;-77
2021/06/22 01:01:17;;;;;;;2.90;2.70;;;18.40;94.80;;;;;;5034406;28;20508;-76
2021/06/22 01:03:44;;;;;;;2.37;2.27;;;18.40;94.70;;;;;;5040706;28;20519;-77
2021/06/22 01:06:11;;;;;;;2.50;2.30;;;18.40;94.60;;;;;;5051676;28;20475;-77
2021/06/22 01:08:40;;;;;;;2.73;2.53;;;18.50;94.00;;;;;;5052119;28;20476;-78
2021/06/22 01:11:08;;;;;;;4.83;3.20;;;18.40;93.70;;;;;;5054176;28;20466;-78
2021/06/22 01:13:34;;;;;;;3.00;2.80;;;18.40;94.00;;;;;;5054752;28;20465;-79
2021/06/22 01:16:01;;;;;;;3.50;2.90;;;18.30;93.60;;;;;;5050987;28;20466;-77
2021/06/22 01:18:28;;;;;;;3.43;3.00;;;18.30;93.60;;;;;;5038356;28;20492;-78
2021/06/22 01:20:57;;;;;;;3.53;3.23;;;18.20;93.60;;;;;;5038508;28;20534;-78
2021/06/22 01:23:25;;;;;;;3.80;3.50;;;18.10;93.60;;;;;;5044446;28;20994;-78
2021/06/22 01:25:51;;;;;;;3.93;3.73;;;18.10;93.40;;;;;;5035642;28;20450;-78
2021/06/22 01:28:18;;;;;;;3.90;3.60;;;18.10;93.20;;;;;;5035718;28;20452;-77
2021/06/22 01:30:45;;;;;;;4.73;4.33;;;18.10;92.80;;;;;;5032657;28;20502;-77
2021/06/22 01:33:12;;;;;;;4.87;4.47;;;18.10;93.00;;;;;;5033114;28;20520;-78
2021/06/22 01:35:39;;;;;;;4.30;4.00;;;18.00;93.10;;;;;;5040067;28;20465;-78
2021/06/22 01:38:09;;;;;;;3.93;3.73;;;18.00;92.60;;;;;;5043097;28;20478;-77
2021/06/22 01:40:43;;;;;;;5.90;4.50;;;18.00;92.80;;;;;;5035125;28;20998;-78
2021/06/22 01:43:10;;;;;;;4.77;4.37;;;17.90;93.50;;;;;;5033715;28;20547;-78
2021/06/22 01:45:37;;;;;;;4.97;4.67;;;17.90;93.80;;;;;;5032927;28;20426;-78
2021/06/22 01:48:05;;;;;;;5.40;4.90;;;17.90;94.50;;;;;;5033578;28;20426;-78
2021/06/22 01:50:32;;;;;;;4.73;4.33;;;17.90;94.50;;;;;;5032840;28;20491;-78
2021/06/22 01:52:59;;;;;;;4.33;4.03;;;17.80;94.50;;;;;;5033481;28;20475;-78
2021/06/22 01:55:40;;;;;;;4.80;4.50;;;17.80;94.50;;;;;;5033823;28;20470;-78
2021/06/22 01:58:08;;;;;;;4.50;3.90;;;17.80;95.70;;;;;;5033177;28;20498;-80
2021/06/22 02:00:36;;;;;;;7.33;3.60;;;17.70;98.10;;;;;;5035282;28;20493;-79
2021/06/22 02:03:02;;;;;;;4.30;3.57;;;17.70;98.80;;;;;;5036183;28;21036;-79
2021/06/22 02:05:30;;;;;;;3.70;3.40;;;17.60;99.90;;;;;;5040779;28;20413;-79
2021/06/22 02:07:57;;;;;;;3.80;3.50;;;17.50;99.90;;;;;;5039316;28;20927;-80
2021/06/22 02:10:24;;;;;;;4.37;3.47;;;17.40;99.90;;;;;;5035833;28;20472;-79
2021/06/22 02:12:52;;;;;;;5.87;5.37;;;17.40;99.90;;;;;;5037046;28;20492;-80
2021/06/22 02:15:19;;;;;;;15.03;6.00;;;17.40;99.90;;;;;;5036537;28;20524;-81
2021/06/22 02:17:46;;;;;;;8.80;7.90;;;17.30;99.90;;;;;;5042186;28;20439;-81
2021/06/22 02:20:14;;;;;;;11.30;9.00;;;17.30;99.90;;;;;;5040621;28;20809;-81
2021/06/22 02:22:42;;;;;;;10.37;8.47;;;17.20;99.90;;;;;;5039756;28;20506;-81
2021/06/22 02:25:11;;;;;;;10.27;9.37;;;17.20;99.90;;;;;;5039318;28;20891;-81
2021/06/22 02:27:39;;;;;;;10.13;8.80;;;17.20;99.90;;;;;;5039913;28;20483;-81
2021/06/22 02:30:11;;;;;;;9.37;8.27;;;17.20;99.90;;;;;;5039014;28;20463;-80
2021/06/22 02:32:39;;;;;;;9.57;8.57;;;17.20;99.90;;;;;;5037441;28;20508;-79
2021/06/22 02:35:07;;;;;;;11.23;10.10;;;17.10;99.90;;;;;;5035921;28;20474;-81
2021/06/22 02:37:34;;;;;;;11.53;10.30;;;17.10;99.90;;;;;;5036307;28;20488;-79
2021/06/22 02:40:01;;;;;;;14.00;12.00;;;17.00;99.90;;;;;;5054527;28;20468;-78
2021/06/22 02:42:28;;;;;;;16.37;13.50;;;17.00;99.90;;;;;;5051574;28;20442;-78
2021/06/22 02:44:55;;;;;;;13.23;11.97;;;16.90;99.90;;;;;;5033723;28;20466;-80
2021/06/22 02:47:24;;;;;;;16.03;14.20;;;16.90;99.90;;;;;;5032892;28;20557;-79
2021/06/22 02:49:51;;;;;;;17.23;13.57;;;16.90;99.90;;;;;;5032576;28;20452;-79
2021/06/22 02:52:18;;;;;;;15.37;13.27;;;16.80;99.90;;;;;;5035022;28;20943;-79
2021/06/22 02:54:45;;;;;;;14.73;13.10;;;16.80;99.90;;;;;;5036217;28;20568;-80
2021/06/22 02:57:12;;;;;;;15.80;13.60;;;16.80;99.90;;;;;;5035880;28;20471;-80
2021/06/22 02:59:40;;;;;;;15.13;13.53;;;16.80;99.90;;;;;;5035595;28;20913;-79
2021/06/22 03:02:08;;;;;;;16.77;13.93;;;16.80;99.90;;;;;;5035601;28;20565;-80
2021/06/22 03:04:37;;;;;;;14.47;12.97;;;16.80;99.90;;;;;;5035160;28;20536;-79
2021/06/22 03:07:04;;;;;;;16.40;14.70;;;16.70;99.90;;;;;;5036176;28;20465;-79
2021/06/22 03:09:31;;;;;;;18.63;15.13;;;16.70;99.90;;;;;;5037332;28;20444;-78
2021/06/22 03:11:58;;;;;;;18.30;15.57;;;16.80;99.90;;;;;;5038314;28;20233;-79
2021/06/22 03:14:26;;;;;;;16.80;13.90;;;16.70;99.90;;;;;;5039632;28;20513;-80
2021/06/22 03:16:53;;;;;;;16.90;14.47;;;16.80;99.90;;;;;;5036474;28;20459;-79
2021/06/22 03:19:21;;;;;;;18.43;15.00;;;16.80;99.90;;;;;;5036271;28;20581;-80
2021/06/22 03:21:49;;;;;;;15.63;14.03;;;16.90;99.90;;;;;;5035841;28;20905;-79
2021/06/22 03:24:17;;;;;;;17.33;14.83;;;16.80;99.90;;;;;;5037341;28;20533;-79
2021/06/22 03:26:45;;;;;;;17.90;16.10;;;16.70;99.90;;;;;;5041590;28;20527;-78
2021/06/22 03:29:13;;;;;;;20.00;16.40;;;16.80;99.90;;;;;;5035810;28;20428;-80
2021/06/22 03:31:40;;;;;;;20.00;17.03;;;16.80;99.90;;;;;;5035429;28;20454;-78
2021/06/22 03:34:07;;;;;;;22.50;18.57;;;16.80;99.90;;;;;;5036229;28;20911;-77
2021/06/22 03:36:34;;;;;;;23.30;18.33;;;16.70;99.90;;;;;;5035747;28;20493;-77
2021/06/22 03:39:02;;;;;;;21.20;17.47;;;16.70;99.90;;;;;;5035360;28;20556;-78
2021/06/22 03:41:32;;;;;;;23.50;18.43;;;16.70;99.90;;;;;;5035179;28;20886;-78
2021/06/22 03:43:59;;;;;;;23.27;19.27;;;16.70;99.90;;;;;;5034791;28;20856;-79
2021/06/22 03:46:26;;;;;;;22.67;18.20;;;16.80;99.90;;;;;;5035279;28;20950;-79
2021/06/22 03:48:53;;;;;;;22.20;17.07;;;16.80;99.90;;;;;;5035245;28;20465;-77
2021/06/22 03:51:20;;;;;;;23.53;16.40;;;16.80;99.90;;;;;;5034707;28;20513;-78
2021/06/22 03:53:48;;;;;;;19.70;16.17;;;16.80;99.90;;;;;;5034670;28;20437;-78
2021/06/22 03:56:17;;;;;;;21.23;16.93;;;16.80;99.90;;;;;;5034916;28;20491;-78
2021/06/22 03:58:44;;;;;;;23.57;16.63;;;16.80;99.90;;;;;;5036974;28;20552;-78
2021/06/22 04:01:11;;;;;;;22.20;18.33;;;16.70;99.90;;;;;;5044357;28;20511;-79
2021/06/22 04:03:38;;;;;;;22.47;17.20;;;16.70;99.90;;;;;;5050440;28;20479;-80
2021/06/22 04:06:05;;;;;;;19.77;16.33;;;16.70;99.90;;;;;;5050620;28;20452;-79
2021/06/22 04:08:32;;;;;;;18.60;16.60;;;16.70;99.90;;;;;;5057852;28;20470;-78
2021/06/22 04:10:59;;;;;;;20.13;16.03;;;16.70;99.90;;;;;;5051372;28;20465;-79
2021/06/22 04:13:27;;;;;;;19.73;15.57;;;16.70;99.90;;;;;;5044627;28;20489;-78
2021/06/22 04:15:54;;;;;;;19.00;13.83;;;16.70;99.90;;;;;;5041888;28;20504;-78
2021/06/22 04:18:22;;;;;;;20.10;14.87;;;16.70;99.90;;;;;;5037028;28;20533;-79
2021/06/22 04:20:50;;;;;;;24.40;15.27;;;16.70;99.90;;;;;;5037225;28;20460;-79
2021/06/22 04:23:17;;;;;;;19.00;15.67;;;16.70;99.90;;;;;;5038395;28;20491;-80
2021/06/22 04:25:44;;;;;;;23.00;16.87;;;16.60;99.90;;;;;;5046806;28;20450;-81
2021/06/22 04:28:12;;;;;;;17.80;14.57;;;16.70;99.90;;;;;;5050627;28;20510;-81
2021/06/22 04:30:40;;;;;;;18.63;14.40;;;16.70;99.90;;;;;;5052755;28;20430;-80
2021/06/22 04:33:08;;;;;;;18.30;12.73;;;16.70;99.90;;;;;;5051020;28;20238;-79
2021/06/22 04:35:36;;;;;;;16.57;13.27;;;16.60;99.90;;;;;;5043628;28;20438;-81
2021/06/22 04:38:05;;;;;;;18.70;13.87;;;16.50;99.90;;;;;;5036382;28;20466;-80
2021/06/22 04:40:33;;;;;;;18.27;14.27;;;16.60;99.90;;;;;;5034457;28;20588;-78
2021/06/22 04:43:00;;;;;;;15.97;13.30;;;16.60;99.90;;;;;;5034300;28;20473;-81
2021/06/22 04:45:27;;;;;;;15.40;12.50;;;16.60;99.90;;;;;;5036129;28;20937;-79
2021/06/22 04:47:56;;;;;;;14.43;12.23;;;16.60;99.90;;;;;;5037067;28;20450;-80
2021/06/22 04:50:23;;;;;;;13.43;11.60;;;16.60;99.90;;;;;;5034888;28;20436;-79
2021/06/22 04:52:50;;;;;;;17.37;13.37;;;16.60;99.90;;;;;;5034638;28;20532;-78
2021/06/22 04:55:20;;;;;;;16.37;12.83;;;16.60;99.90;;;;;;5035283;28;20542;-78
2021/06/22 04:57:47;;;;;;;16.30;12.63;;;16.60;99.90;;;;;;5037929;28;20504;-78
2021/06/22 05:00:16;;;;;;;15.13;11.77;;;16.60;99.90;;;;;;5035641;28;20540;-78
2021/06/22 05:02:45;;;;;;;14.37;12.83;;;16.70;99.90;;;;;;5038837;28;20451;-81
2021/06/22 05:05:15;;;;;;;14.87;12.60;;;16.60;99.90;;;;;;5038482;28;20801;-80
2021/06/22 05:07:42;;;;;;;15.70;12.10;;;16.70;99.90;;;;;;5036705;28;20544;-79
2021/06/22 05:10:11;;;;;;;16.27;13.40;;;16.70;99.90;;;;;;5033858;28;20552;-79
2021/06/22 05:12:40;;;;;;;15.60;11.40;;;16.80;99.90;;;;;;5034580;28;20464;-79
2021/06/22 05:15:08;;;;;;;14.60;12.37;;;16.80;99.90;;;;;;5049944;28;20453;-79
2021/06/22 05:17:35;;;;;;;14.77;11.83;;;16.80;99.80;;;;;;5057028;28;20741;-80
2021/06/22 05:20:03;;;;;;;14.97;12.40;;;16.80;99.50;;;;;;5041220;28;20946;-79
2021/06/22 05:22:31;;;;;;;14.30;11.83;;;16.80;99.90;;;;;;5034059;28;20511;-78
2021/06/22 05:24:58;;;;;;;16.90;12.70;;;16.80;99.90;;;;;;5034371;28;20842;-80
2021/06/22 05:27:25;;;;;;;13.57;11.97;;;16.80;99.90;;;;;;5034411;28;20433;-77
2021/06/22 05:29:52;;;;;;;16.47;12.73;;;16.90;99.90;;;;;;5033713;28;20457;-78
2021/06/22 05:32:19;;;;;;;22.70;14.80;;;17.00;99.90;;;;;;5033955;28;20507;-79
2021/06/22 05:34:46;;;;;;;17.50;13.67;;;17.10;98.90;;;;;;5037877;28;20471;-80
2021/06/22 05:37:12;;;;;;;19.23;13.90;;;17.10;98.40;;;;;;5045767;28;20458;-79
2021/06/22 05:39:41;;;;;;;15.27;12.70;;;17.10;97.80;;;;;;5047008;28;20521;-79
2021/06/22 05:42:08;;;;;;;13.27;11.47;;;17.10;98.10;;;;;;5034339;28;20557;-79
2021/06/22 05:44:35;;;;;;;19.63;14.70;;;17.20;97.90;;;;;;5033781;28;20458;-79
2021/06/22 05:47:01;;;;;;;16.90;13.97;;;17.30;97.50;;;;;;5033848;28;20563;-80
2021/06/22 05:49:28;;;;;;;20.07;15.40;;;17.10;97.80;;;;;;5034447;28;20453;-81
2021/06/22 05:51:55;;;;;;;16.73;13.20;;;17.00;97.80;;;;;;5036700;28;20935;-80
2021/06/22 05:54:22;;;;;;;18.70;13.50;;;17.10;98.70;;;;;;5037902;28;20910;-85
2021/06/22 05:56:50;;;;;;;18.33;13.00;;;17.10;98.10;;;;;;5025762;28;20459;-79
2021/06/22 05:59:17;;;;;;;22.03;13.97;;;17.20;98.00;;;;;;5030351;28;20482;-79
2021/06/22 06:01:50;;;;;;;22.37;14.40;;;17.20;97.90;;;;;;5035218;28;20443;-81
2021/06/22 06:04:17;;;;;;;24.60;15.00;;;17.10;98.10;;;;;;5036225;28;20516;-78
2021/06/22 06:06:44;;;;;;;24.13;14.07;;;17.10;98.20;;;;;;5036542;28;20455;-78
2021/06/22 06:09:11;;;;;;;27.10;14.70;;;17.20;98.30;;;;;;5035684;28;20451;-78
2021/06/22 06:11:38;;;;;;;20.43;14.60;;;17.20;98.10;;;;;;5034162;28;20467;-79
2021/06/22 06:14:06;;;;;;;18.17;13.73;;;17.00;98.90;;;;;;5055624;22;20902;-75
2021/06/22 06:16:33;;;;;;;19.20;13.33;;;17.00;99.90;;;;;;5034912;28;20442;-76
2021/06/22 06:19:00;;;;;;;17.97;13.60;;;17.00;99.90;;;;;;5034956;28;20478;-76
2021/06/22 06:21:27;;;;;;;19.33;14.40;;;16.90;99.90;;;;;;5036086;28;20432;-76
2021/06/22 06:23:56;;;;;;;22.60;14.73;;;16.80;99.90;;;;;;5036692;28;20497;-77
2021/06/22 06:26:23;;;;;;;22.43;14.60;;;16.60;99.90;;;;;;5037740;28;20457;-75
2021/06/22 06:28:52;;;;;;;21.47;15.13;;;16.40;99.90;;;;;;5039470;28;20468;-75
2021/06/22 06:31:21;;;;;;;24.40;14.73;;;16.40;99.90;;;;;;5039928;28;20458;-75
2021/06/22 06:33:48;;;;;;;21.80;15.25;;;16.60;99.90;;;;;;5039123;28;20934;-75
2021/06/22 06:36:15;;;;;;;22.23;14.73;;;16.60;99.90;;;;;;5039589;28;20222;-73
2021/06/22 06:38:42;;;;;;;22.00;14.47;;;16.70;99.90;;;;;;5038725;28;20458;-73
2021/06/22 06:41:09;;;;;;;20.83;13.98;;;16.70;99.90;;;;;;5038977;28;20464;-73
2021/06/22 06:43:36;;;;;;;21.70;15.13;;;16.70;99.90;;;;;;5040116;28;20283;-76
2021/06/22 06:46:03;;;;;;;20.43;14.80;;;16.70;99.90;;;;;;5043487;28;20464;-76
2021/06/22 06:48:33;;;;;;;22.50;13.20;;;16.80;99.90;;;;;;5048411;28;20649;-75
2021/06/22 06:50:59;;;;;;;19.10;13.40;;;16.80;99.90;;;;;;5060029;28;20468;-76
2021/06/22 06:53:26;;;;;;;19.47;13.30;;;16.90;99.90;;;;;;5060041;28;20424;-74
2021/06/22 06:55:53;;;;;;;18.33;12.00;;;16.70;99.90;;;;;;5052083;28;20448;-77
2021/06/22 06:58:20;;;;;;;21.40;12.53;;;16.70;99.90;;;;;;5058494;28;20412;-78
2021/06/22 07:00:47;;;;;;;21.03;13.70;;;16.70;99.90;;;;;;5058267;28;20475;-77
2021/06/22 07:03:14;;;;;;;17.50;12.07;;;16.70;99.90;;;;;;5048498;28;20470;-79
2021/06/22 07:05:42;;;;;;;18.50;12.60;;;16.70;99.90;;;;;;5046697;28;20498;-76
2021/06/22 07:08:09;;;;;;;16.57;12.77;;;16.70;99.90;;;;;;5061994;28;20453;-78
2021/06/22 07:10:38;;;;;;;14.20;12.13;;;16.60;99.90;;;;;;5054084;28;20461;-77
2021/06/22 07:13:12;;;;;;;13.83;11.00;;;16.60;99.90;;;;;;5054500;28;20239;-78
2021/06/22 07:15:39;;;;;;;15.37;11.90;;;16.60;99.90;;;;;;5049881;28;20439;-79
2021/06/22 07:18:07;;;;;;;16.07;11.80;;;16.70;99.90;;;;;;5043297;28;20480;-80
2021/06/22 07:20:34;;;;;;;14.57;12.27;;;16.70;99.90;;;;;;5043754;28;20504;-80
2021/06/22 07:23:02;;;;;;;17.53;13.30;;;16.80;99.90;;;;;;5054281;28;20456;-80
2021/06/22 07:25:29;;;;;;;14.47;11.07;;;16.90;99.90;;;;;;5044366;28;20489;-82
2021/06/22 07:27:57;;;;;;;14.60;12.50;;;16.80;99.90;;;;;;5055195;28;20422;-81
2021/06/22 07:30:26;;;;;;;16.63;12.45;;;16.90;99.90;;;;;;5054000;28;20450;-81
2021/06/22 07:32:54;;;;;;;21.00;11.23;;;16.90;99.90;;;;;;5052960;28;20250;-80
2021/06/22 07:35:22;;;;;;;15.77;11.25;;;17.00;99.90;;;;;;5053618;28;20455;-82
2021/06/22 07:37:49;;;;;;;15.00;11.30;;;17.10;99.90;;;;;;5053203;28;20203;-81
2021/06/22 07:40:19;;;;;;;13.98;11.18;;;17.20;99.90;;;;;;5053726;28;20457;-79
2021/06/22 07:42:47;;;;;;;13.83;9.90;;;17.10;99.90;;;;;;5055609;28;20223;-79
2021/06/22 07:45:15;;;;;;;12.00;10.60;;;17.20;99.90;;;;;;5053160;28;20465;-81
2021/06/22 07:47:42;;;;;;;11.43;10.07;;;17.40;99.90;;;;;;5051968;28;20466;-79
2021/06/22 07:50:10;;;;;;;12.97;10.97;;;17.40;99.90;;;;;;5049379;28;20548;-78
2021/06/22 07:52:37;;;;;;;17.80;10.33;;;17.50;99.90;;;;;;5044519;28;20483;-78
2021/06/22 07:55:05;;;;;;;15.50;10.80;;;17.40;99.90;;;;;;5051507;28;20468;-78
2021/06/22 07:57:34;;;;;;;16.47;9.60;;;17.20;99.90;;;;;;5043520;28;20606;-77
2021/06/22 08:00:24;;;;;;;17.57;10.87;;;17.10;99.90;;;;;;5041878;28;20482;-77
2021/06/22 08:02:51;;;;;;;13.10;10.40;;;17.10;99.90;;;;;;4979153;28;20450;-79
2021/06/22 08:05:18;;;;;;;14.20;11.27;;;17.20;99.90;;;;;;5040735;28;21052;-78
2021/06/22 08:07:45;;;;;;;15.40;12.23;;;17.40;99.90;;;;;;5038331;28;20985;-78
2021/06/22 08:10:12;;;;;;;17.67;11.27;;;17.40;99.90;;;;;;5037811;28;20450;-78
2021/06/22 08:12:41;;;;;;;12.50;10.90;;;17.50;99.90;;;;;;5036800;28;20512;-78
2021/06/22 08:15:08;;;;;;;13.03;9.70;;;17.60;99.90;;;;;;5037785;28;20510;-78
2021/06/22 08:17:36;;;;;;;12.03;9.00;;;17.60;99.90;;;;;;5048873;28;20454;-78
2021/06/22 08:20:03;;;;;;;10.53;9.43;;;17.60;99.90;;;;;;5038937;28;20888;-79
2021/06/22 08:22:30;;;;;;;13.67;9.50;;;17.80;99.90;;;;;;5038039;28;20474;-78
2021/06/22 08:24:58;;;;;;;15.30;10.70;;;17.90;99.90;;;;;;5041130;28;20426;-79
2021/06/22 08:27:25;;;;;;;12.97;10.70;;;18.10;98.70;;;;;;5040634;28;20430;-78
2021/06/22 08:29:53;;;;;;;12.07;10.80;;;18.20;97.70;;;;;;5047162;28;20459;-79
2021/06/22 08:32:20;;;;;;;17.80;11.43;;;18.20;96.20;;;;;;5054160;28;20454;-77
2021/06/22 08:34:47;;;;;;;14.93;12.30;;;18.10;95.50;;;;;;5045622;28;20810;-78
2021/06/22 08:37:14;;;;;;;12.40;10.73;;;17.90;96.40;;;;;;5039338;28;20455;-77
2021/06/22 08:39:41;;;;;;;13.30;11.30;;;18.00;98.20;;;;;;5040153;28;20984;-78
2021/06/22 08:42:09;;;;;;;14.97;10.90;;;18.40;96.80;;;;;;5049814;28;20463;-77
2021/06/22 08:44:38;;;;;;;12.40;10.40;;;18.50;95.10;;;;;;5051953;28;20480;-77
2021/06/22 08:47:08;;;;;;;12.63;10.80;;;18.60;94.20;;;;;;5048441;28;20464;-78
2021/06/22 08:49:36;;;;;;;13.13;11.23;;;18.70;92.80;;;;;;5053472;28;20457;-76
2021/06/22 08:52:03;;;;;;;12.30;11.00;;;18.60;92.50;;;;;;5053012;28;20443;-78
2021/06/22 08:54:30;;;;;;;14.73;10.70;;;18.60;93.30;;;;;;5042836;28;20427;-77
2021/06/22 08:56:58;;;;;;;11.20;10.13;;;18.70;92.60;;;;;;5041320;28;20510;-77
2021/06/22 08:59:25;;;;;;;12.73;10.50;;;18.90;92.60;;;;;;5038629;28;20495;-77
2021/06/22 09:01:52;;;;;;;12.53;11.30;;;19.00;92.10;;;;;;5038622;28;20626;-77
2021/06/22 09:04:21;;;;;;;12.40;11.20;;;19.00;92.30;;;;;;5042140;28;20511;-77
2021/06/22 09:06:48;;;;;;;13.73;12.30;;;19.00;91.30;;;;;;5053260;28;20449;-77
2021/06/22 09:09:14;;;;;;;15.30;13.70;;;18.90;91.20;;;;;;5050951;28;20428;-77
2021/06/22 09:11:41;;;;;;;12.97;11.70;;;18.70;91.70;;;;;;5057818;28;20419;-76
2021/06/22 09:14:10;;;;;;;13.53;11.60;;;18.60;93.00;;;;;;5057816;28;20470;-75
2021/06/22 09:16:40;;;;;;;13.83;12.53;;;18.70;93.50;;;;;;5058038;28;20440;-77
2021/06/22 09:19:09;;;;;;;14.60;13.13;;;18.70;93.50;;;;;;5051793;28;20415;-77
2021/06/22 09:21:42;;;;;;;16.03;12.30;;;18.60;93.70;;;;;;5038863;28;21020;-77
2021/06/22 09:24:20;;;;;;;15.63;13.20;;;18.50;94.10;;;;;;5038266;28;20637;-77
2021/06/22 09:26:49;;;;;;;14.10;12.60;;;18.00;96.40;;;;;;5041479;28;20440;-77
2021/06/22 09:29:20;;;;;;;14.30;12.90;;;18.10;98.20;;;;;;5035651;28;20422;-77
2021/06/22 09:31:58;;;;;;;14.13;12.70;;;18.10;97.00;;;;;;5025013;28;20441;-76
2021/06/22 09:34:26;;;;;;;15.00;13.00;;;18.00;96.80;;;;;;5038886;28;20432;-77
2021/06/22 09:36:56;;;;;;;17.53;12.90;;;18.10;97.30;;;;;;5035378;28;20472;-76
2021/06/22 09:39:25;;;;;;;14.60;12.60;;;18.10;96.70;;;;;;5035120;28;20572;-76
2021/06/22 09:41:53;;;;;;;16.67;12.40;;;18.10;97.30;;;;;;5035030;28;20582;-76
2021/06/22 09:44:24;;;;;;;14.23;12.73;;;18.00;97.60;;;;;;5034880;28;20511;-76
2021/06/22 09:46:53;;;;;;;15.00;12.17;;;18.10;98.90;;;;;;5036203;28;20978;-76
2021/06/22 09:49:24;;;;;;;15.73;12.47;;;18.00;98.20;;;;;;5036590;28;20483;-77
2021/06/22 09:51:56;;;;;;;15.60;13.10;;;17.90;99.00;;;;;;5043897;28;21024;-74
2021/06/22 09:54:26;;;;;;;15.13;13.70;;;17.80;99.90;;;;;;5036432;28;20466;-75
2021/06/22 09:57:05;;;;;;;19.57;14.00;;;17.70;99.90;;;;;;5034876;28;20534;-76
2021/06/22 09:59:47;;;;;;;16.70;13.80;;;17.90;99.90;;;;;;5033791;28;21060;-76
2021/06/22 10:02:14;;;;;;;14.83;13.17;;;17.80;99.90;;;;;;5033563;28;20836;-76
2021/06/22 10:04:42;;;;;;;14.13;12.83;;;18.00;99.90;;;;;;5034209;28;20519;-76
2021/06/22 10:07:12;;;;;;;14.03;12.53;;;17.90;99.90;;;;;;5035395;28;20497;-75
2021/06/22 10:09:40;;;;;;;19.50;13.53;;;17.90;99.90;;;;;;5034230;28;20952;-76
2021/06/22 10:12:09;;;;;;;16.00;13.27;;;17.90;99.90;;;;;;5034090;28;20478;-76
2021/06/22 10:14:38;;;;;;;14.43;12.43;;;17.90;99.90;;;;;;5035323;28;20986;-76
2021/06/22 10:17:10;;;;;;;13.17;11.77;;;18.10;99.90;;;;;;5037632;28;20497;-76
2021/06/22 10:19:38;;;;;;;13.03;11.73;;;18.30;99.90;;;;;;5044160;28;20524;-76
2021/06/22 10:22:07;;;;;;;13.33;12.03;;;18.30;99.10;;;;;;5037434;28;20995;-76
2021/06/22 10:24:38;;;;;;;13.70;10.93;;;18.30;99.40;;;;;;5033342;28;20940;-76
2021/06/22 10:27:05;;;;;;;11.00;9.77;;;18.50;98.70;;;;;;5034225;28;21054;-77
2021/06/22 10:29:32;;;;;;;10.83;9.77;;;18.60;96.70;;;;;;5034240;28;20538;-76
2021/06/22 10:32:01;;;;;;;12.67;10.00;;;18.60;97.40;;;;;;5034101;28;20518;-76
2021/06/22 10:34:28;;;;;;;10.10;9.13;;;18.60;97.10;;;;;;5035138;28;20960;-76
2021/06/22 10:37:02;;;;;;;12.00;9.70;;;18.80;95.90;;;;;;5034185;28;20790;-76
2021/06/22 10:39:34;;;;;;;10.27;9.27;;;18.80;96.20;;;;;;5034198;28;20503;-76
2021/06/22 10:42:11;;;;;;;10.13;9.13;;;19.20;96.00;;;;;;5034956;28;20532;-78
2021/06/22 10:44:43;;;;;;;9.63;8.77;;;19.40;91.50;;;;;;5035337;28;20952;-77
2021/06/22 10:47:36;;;;;;;8.40;7.60;;;19.60;90.70;;;;;;5036328;28;20551;-77
2021/06/22 10:50:29;;;;;;;9.57;8.53;;;19.70;87.70;;;;;;5039656;28;20461;-78
2021/06/22 10:53:07;;;;;;;8.73;8.00;;;19.60;86.40;;;;;;5046432;28;20477;-78
2021/06/22 10:56:18;;;;;;;18.17;9.03;;;19.50;88.70;;;;;;5050240;28;20415;-78
2021/06/22 10:59:28;;;;;;;8.57;7.87;;;19.50;91.50;;;;;;5048411;28;20529;-79
2021/06/22 11:02:05;;;;;;;13.40;7.90;;;19.70;86.90;;;;;;5059225;28;20489;-81
2021/06/22 11:04:32;;;;;;;9.33;8.50;;;19.70;87.60;;;;;;5046905;28;20461;-76
2021/06/22 11:07:23;;;;;;;10.30;9.40;;;19.90;85.40;;;;;;5047202;28;20488;-78
2021/06/22 11:10:13;;;;;;;9.90;9.10;;;20.00;85.80;;;;;;5044395;28;20445;-78
2021/06/22 11:12:47;;;;;;;10.20;9.30;;;19.80;86.80;;;;;;5042226;28;20482;-79
2021/06/22 11:15:16;;;;;;;9.57;8.50;;;19.70;88.40;;;;;;5041177;28;20460;-77
2021/06/22 11:17:59;;;;;;;10.30;9.23;;;19.70;87.10;;;;;;5040665;28;20937;-78
2021/06/22 11:20:30;;;;;;;11.07;10.07;;;19.70;90.00;;;;;;5045740;28;20458;-80
2021/06/22 11:23:09;;;;;;;10.90;9.97;;;19.80;87.90;;;;;;5025197;28;20541;-77
2021/06/22 11:26:04;;;;;;;11.00;10.10;;;19.60;87.40;;;;;;5044044;28;20751;-76
2021/06/22 11:28:55;;;;;;;11.03;10.13;;;19.60;90.10;;;;;;5045520;28;20457;-79
2021/06/22 11:31:40;;;;;;;11.83;10.77;;;19.60;90.00;;;;;;5051251;28;20449;-77
2021/06/22 11:34:40;;;;;;;12.17;10.97;;;19.70;90.20;;;;;;5050869;28;20457;-77
2021/06/22 11:37:20;;;;;;;12.30;11.20;;;19.70;89.40;;;;;;5049968;28;20534;-77
2021/06/22 11:40:01;;;;;;;12.60;11.40;;;19.60;91.20;;;;;;5041015;28;20460;-77
2021/06/22 11:42:28;;;;;;;12.97;11.83;;;19.30;91.40;;;;;;5038549;28;20928;-77
2021/06/22 11:45:17;;;;;;;11.37;10.33;;;19.20;91.40;;;;;;5037451;28;20465;-77
2021/06/22 11:48:01;;;;;;;12.37;11.40;;;19.20;91.40;;;;;;5040379;28;20466;-77
2021/06/22 11:50:47;;;;;;;12.87;11.70;;;19.40;91.50;;;;;;5056952;28;20482;-77
2021/06/22 11:53:15;;;;;;;12.40;11.30;;;19.40;91.50;;;;;;5060913;28;20543;-75
2021/06/22 11:55:56;;;;;;;12.20;11.13;;;19.30;90.40;;;;;;5058706;28;20461;-76
2021/06/22 11:58:26;;;;;;;13.60;12.43;;;19.00;91.30;;;;;;5059314;28;20438;-77
2021/06/22 12:00:54;;;;;;;12.90;11.80;;;19.00;92.10;;;;;;5046588;28;20433;-76
2021/06/22 12:03:30;;;;;;;13.87;12.57;;;18.90;93.40;;;;;;5058809;28;20441;-77
2021/06/22 12:06:09;;;;;;;14.83;11.70;;;18.90;94.00;;;;;;5040473;28;20459;-77
2021/06/22 12:08:38;;;;;;;14.33;13.03;;;18.80;94.00;;;;;;5042628;28;20510;-76
2021/06/22 12:11:05;;;;;;;13.57;12.30;;;18.60;95.60;;;;;;5047719;28;20451;-77
2021/06/22 12:13:36;;;;;;;15.97;14.37;;;18.50;97.00;;;;;;5057117;28;20556;-80
2021/06/22 12:16:24;;;;;;;13.27;12.13;;;18.70;97.60;;;;;;5052191;28;20471;-78
2021/06/22 12:18:54;;;;;;;14.30;12.80;;;18.60;96.30;;;;;;5057958;28;20441;-80
2021/06/22 12:21:21;;;;;;;14.10;12.80;;;18.60;97.10;;;;;;5057289;28;20512;-80
2021/06/22 12:23:48;;;;;;;13.80;12.50;;;18.50;97.40;;;;;;5053267;28;20483;-79
2021/06/22 12:26:17;;;;;;;12.67;11.57;;;18.60;96.20;;;;;;5048963;28;20462;-77
2021/06/22 12:28:45;;;;;;;12.03;11.03;;;18.70;95.80;;;;;;5041105;28;20477;-79
2021/06/22 12:31:14;;;;;;;14.83;13.50;;;18.70;96.20;;;;;;5034254;28;20449;-79
2021/06/22 12:33:43;;;;;;;14.83;13.47;;;18.80;96.50;;;;;;5035301;28;20492;-78
2021/06/22 12:36:14;;;;;;;13.70;12.30;;;18.80;98.50;;;;;;5034903;28;20492;-78
2021/06/22 12:38:41;;;;;;;13.63;12.57;;;19.20;97.20;;;;;;5036730;28;20484;-76
2021/06/22 12:41:09;;;;;;;12.90;11.80;;;19.70;96.20;;;;;;5035182;28;20549;-75
2021/06/22 12:43:45;;;;;;;13.17;11.97;;;20.40;93.20;;;;;;5035950;28;20474;-75